sensor_id;sensor_type;location;lat;lon;timestamp;P1;durP1;ratioP1;P2;durP2;ratioP2
50906;SDS011;36882;27.680;85.304;2022-11-25T00:00:36;95.75;;;51.40;;
50906;SDS011;36882;27.680;85.304;2022-11-25T00:03:06;95.68;;;50.38;;
50906;SDS011;36882;27.680;85.304;2022-11-25T00:05:36;90.95;;;52.15;;
50906;SDS011;36882;27.680;85.304;2022-11-25T00:08:05;99.55;;;48.53;;
50906;SDS011;36882;27.680;85.304;2022-11-25T00:10:36;75.82;;;42.53;;
50906;SDS011;36882;27.680;85.304;2022-11-25T00:13:05;83.63;;;45.75;;
50906;SDS011;36882;27.680;85.304;2022-11-25T00:15:35;83.82;;;43.65;;
50906;SDS011;36882;27.680;85.304;2022-11-25T00:18:05;84.00;;;56.25;;
50906;SDS011;36882;27.680;85.304;2022-11-25T00:20:36;81.45;;;59.22;;
50906;SDS011;36882;27.680;85.304;2022-11-25T00:23:05;94.53;;;58.88;;
50906;SDS011;36882;27.680;85.304;2022-11-25T00:25:35;96.43;;;65.23;;
50906;SDS011;36882;27.680;85.304;2022-11-25T00:28:05;90.23;;;61.40;;
50906;SDS011;36882;27.680;85.304;2022-11-25T00:30:35;92.13;;;60.63;;
50906;SDS011;36882;27.680;85.304;2022-11-25T00:33:05;88.28;;;56.78;;
50906;SDS011;36882;27.680;85.304;2022-11-25T00:35:35;85.85;;;54.92;;
50906;SDS011;36882;27.680;85.304;2022-11-25T00:38:05;84.63;;;54.95;;
50906;SDS011;36882;27.680;85.304;2022-11-25T00:40:35;92.03;;;60.40;;
50906;SDS011;36882;27.680;85.304;2022-11-25T00:43:04;91.93;;;59.72;;
50906;SDS011;36882;27.680;85.304;2022-11-25T00:45:47;94.65;;;61.05;;
50906;SDS011;36882;27.680;85.304;2022-11-25T00:48:17;99.47;;;56.70;;
50906;SDS011;36882;27.680;85.304;2022-11-25T00:50:47;96.45;;;57.58;;
50906;SDS011;36882;27.680;85.304;2022-11-25T00:53:17;88.38;;;54.90;;
50906;SDS011;36882;27.680;85.304;2022-11-25T00:55:47;91.10;;;58.23;;
50906;SDS011;36882;27.680;85.304;2022-11-25T00:58:28;81.03;;;56.80;;
50906;SDS011;36882;27.680;85.304;2022-11-25T01:01:00;115.28;;;57.63;;
50906;SDS011;36882;27.680;85.304;2022-11-25T01:03:30;98.63;;;57.42;;
50906;SDS011;36882;27.680;85.304;2022-11-25T01:06:01;94.72;;;58.08;;
50906;SDS011;36882;27.680;85.304;2022-11-25T01:08:35;104.85;;;61.72;;
50906;SDS011;36882;27.680;85.304;2022-11-25T01:11:07;80.40;;;53.75;;
50906;SDS011;36882;27.680;85.304;2022-11-25T01:13:40;93.13;;;52.17;;
50906;SDS011;36882;27.680;85.304;2022-11-25T01:16:13;84.72;;;53.97;;
50906;SDS011;36882;27.680;85.304;2022-11-25T01:18:45;102.70;;;56.45;;
50906;SDS011;36882;27.680;85.304;2022-11-25T01:21:18;86.38;;;50.88;;
50906;SDS011;36882;27.680;85.304;2022-11-25T01:23:49;88.70;;;51.40;;
50906;SDS011;36882;27.680;85.304;2022-11-25T01:26:23;88.93;;;48.20;;
50906;SDS011;36882;27.680;85.304;2022-11-25T01:28:54;89.38;;;51.55;;
50906;SDS011;36882;27.680;85.304;2022-11-25T01:31:29;80.35;;;46.33;;
50906;SDS011;36882;27.680;85.304;2022-11-25T01:34:04;84.90;;;45.42;;
50906;SDS011;36882;27.680;85.304;2022-11-25T01:36:36;76.15;;;46.83;;
50906;SDS011;36882;27.680;85.304;2022-11-25T01:39:07;76.97;;;45.60;;
50906;SDS011;36882;27.680;85.304;2022-11-25T01:41:40;78.32;;;46.85;;
50906;SDS011;36882;27.680;85.304;2022-11-25T01:44:12;87.93;;;49.03;;
50906;SDS011;36882;27.680;85.304;2022-11-25T01:47:04;82.60;;;48.60;;
50906;SDS011;36882;27.680;85.304;2022-11-25T01:49:47;87.70;;;48.05;;
50906;SDS011;36882;27.680;85.304;2022-11-25T01:52:37;79.10;;;43.80;;
50906;SDS011;36882;27.680;85.304;2022-11-25T01:55:16;76.78;;;46.15;;
50906;SDS011;36882;27.680;85.304;2022-11-25T01:57:58;78.30;;;44.42;;
50906;SDS011;36882;27.680;85.304;2022-11-25T02:00:35;78.72;;;50.13;;
50906;SDS011;36882;27.680;85.304;2022-11-25T02:03:06;82.75;;;47.38;;
50906;SDS011;36882;27.680;85.304;2022-11-25T02:08:13;80.85;;;48.03;;
50906;SDS011;36882;27.680;85.304;2022-11-25T02:10:45;109.38;;;59.05;;
50906;SDS011;36882;27.680;85.304;2022-11-25T02:13:15;129.27;;;66.40;;
50906;SDS011;36882;27.680;85.304;2022-11-25T02:15:46;121.28;;;66.50;;
50906;SDS011;36882;27.680;85.304;2022-11-25T02:18:16;132.05;;;79.38;;
50906;SDS011;36882;27.680;85.304;2022-11-25T02:20:46;133.43;;;80.50;;
50906;SDS011;36882;27.680;85.304;2022-11-25T02:23:27;139.85;;;82.68;;
50906;SDS011;36882;27.680;85.304;2022-11-25T02:26:18;148.57;;;82.10;;
50906;SDS011;36882;27.680;85.304;2022-11-25T02:28:49;133.55;;;79.13;;
50906;SDS011;36882;27.680;85.304;2022-11-25T02:31:20;128.57;;;76.25;;
50906;SDS011;36882;27.680;85.304;2022-11-25T02:33:51;130.55;;;74.97;;
50906;SDS011;36882;27.680;85.304;2022-11-25T02:36:21;122.82;;;73.20;;
50906;SDS011;36882;27.680;85.304;2022-11-25T02:38:52;116.55;;;73.13;;
50906;SDS011;36882;27.680;85.304;2022-11-25T02:41:34;104.28;;;69.07;;
50906;SDS011;36882;27.680;85.304;2022-11-25T02:44:11;108.57;;;68.10;;
50906;SDS011;36882;27.680;85.304;2022-11-25T02:46:41;107.68;;;66.13;;
50906;SDS011;36882;27.680;85.304;2022-11-25T02:49:11;115.95;;;72.38;;
50906;SDS011;36882;27.680;85.304;2022-11-25T02:51:42;115.57;;;74.05;;
50906;SDS011;36882;27.680;85.304;2022-11-25T02:54:13;122.80;;;74.35;;
50906;SDS011;36882;27.680;85.304;2022-11-25T02:56:45;112.80;;;73.93;;
50906;SDS011;36882;27.680;85.304;2022-11-25T02:59:15;117.57;;;74.78;;
50906;SDS011;36882;27.680;85.304;2022-11-25T03:01:48;123.65;;;75.95;;
50906;SDS011;36882;27.680;85.304;2022-11-25T03:04:18;134.50;;;76.97;;
50906;SDS011;36882;27.680;85.304;2022-11-25T03:06:48;124.18;;;71.10;;
50906;SDS011;36882;27.680;85.304;2022-11-25T03:09:18;124.82;;;82.28;;
50906;SDS011;36882;27.680;85.304;2022-11-25T03:11:48;144.65;;;86.78;;
50906;SDS011;36882;27.680;85.304;2022-11-25T03:14:36;121.35;;;79.95;;
50906;SDS011;36882;27.680;85.304;2022-11-25T03:17:06;138.32;;;82.25;;
50906;SDS011;36882;27.680;85.304;2022-11-25T03:19:36;131.70;;;79.88;;
50906;SDS011;36882;27.680;85.304;2022-11-25T03:22:06;133.45;;;78.65;;
50906;SDS011;36882;27.680;85.304;2022-11-25T03:24:36;120.70;;;78.40;;
50906;SDS011;36882;27.680;85.304;2022-11-25T03:27:06;124.00;;;79.25;;
50906;SDS011;36882;27.680;85.304;2022-11-25T03:29:36;138.10;;;81.93;;
50906;SDS011;36882;27.680;85.304;2022-11-25T03:32:05;129.02;;;84.85;;
50906;SDS011;36882;27.680;85.304;2022-11-25T03:34:35;130.35;;;82.93;;
50906;SDS011;36882;27.680;85.304;2022-11-25T03:37:07;125.13;;;80.35;;
50906;SDS011;36882;27.680;85.304;2022-11-25T03:39:37;129.65;;;83.38;;
50906;SDS011;36882;27.680;85.304;2022-11-25T03:42:08;125.18;;;86.22;;
50906;SDS011;36882;27.680;85.304;2022-11-25T03:44:38;129.48;;;88.15;;
50906;SDS011;36882;27.680;85.304;2022-11-25T03:47:09;132.13;;;81.82;;
50906;SDS011;36882;27.680;85.304;2022-11-25T03:49:39;137.20;;;86.20;;
50906;SDS011;36882;27.680;85.304;2022-11-25T03:54:39;154.13;;;86.00;;
50906;SDS011;36882;27.680;85.304;2022-11-25T03:57:09;123.47;;;87.57;;
50906;SDS011;36882;27.680;85.304;2022-11-25T03:59:40;137.68;;;92.72;;
50906;SDS011;36882;27.680;85.304;2022-11-25T04:02:10;129.55;;;83.40;;
50906;SDS011;36882;27.680;85.304;2022-11-25T04:04:42;145.25;;;83.53;;
50906;SDS011;36882;27.680;85.304;2022-11-25T04:07:12;120.82;;;77.15;;
50906;SDS011;36882;27.680;85.304;2022-11-25T04:09:42;119.05;;;76.47;;
50906;SDS011;36882;27.680;85.304;2022-11-25T04:12:12;123.28;;;77.30;;
50906;SDS011;36882;27.680;85.304;2022-11-25T04:15:00;120.78;;;77.30;;
50906;SDS011;36882;27.680;85.304;2022-11-25T04:17:30;105.60;;;76.25;;
50906;SDS011;36882;27.680;85.304;2022-11-25T04:20:00;107.25;;;69.88;;
50906;SDS011;36882;27.680;85.304;2022-11-25T04:22:30;100.60;;;65.85;;
50906;SDS011;36882;27.680;85.304;2022-11-25T04:25:00;102.05;;;64.10;;
50906;SDS011;36882;27.680;85.304;2022-11-25T04:27:30;101.57;;;64.75;;
50906;SDS011;36882;27.680;85.304;2022-11-25T04:29:59;101.65;;;68.80;;
50906;SDS011;36882;27.680;85.304;2022-11-25T04:32:30;113.47;;;67.32;;
50906;SDS011;36882;27.680;85.304;2022-11-25T04:37:29;110.72;;;71.75;;
50906;SDS011;36882;27.680;85.304;2022-11-25T04:39:59;99.07;;;66.43;;
50906;SDS011;36882;27.680;85.304;2022-11-25T04:42:29;107.80;;;72.03;;
50906;SDS011;36882;27.680;85.304;2022-11-25T04:47:48;89.13;;;61.78;;
50906;SDS011;36882;27.680;85.304;2022-11-25T04:50:19;94.38;;;55.75;;
50906;SDS011;36882;27.680;85.304;2022-11-25T04:52:50;99.45;;;58.75;;
50906;SDS011;36882;27.680;85.304;2022-11-25T04:55:20;86.53;;;54.45;;
50906;SDS011;36882;27.680;85.304;2022-11-25T04:57:50;89.82;;;59.33;;
50906;SDS011;36882;27.680;85.304;2022-11-25T05:00:20;91.00;;;62.60;;
50906;SDS011;36882;27.680;85.304;2022-11-25T05:02:50;84.32;;;59.28;;
50906;SDS011;36882;27.680;85.304;2022-11-25T05:05:20;72.78;;;50.67;;
50906;SDS011;36882;27.680;85.304;2022-11-25T05:07:50;72.80;;;50.08;;
50906;SDS011;36882;27.680;85.304;2022-11-25T05:10:20;80.20;;;50.90;;
50906;SDS011;36882;27.680;85.304;2022-11-25T05:12:50;74.63;;;49.08;;
50906;SDS011;36882;27.680;85.304;2022-11-25T05:15:20;68.75;;;44.38;;
50906;SDS011;36882;27.680;85.304;2022-11-25T05:17:50;63.58;;;40.53;;
50906;SDS011;36882;27.680;85.304;2022-11-25T05:20:20;70.22;;;46.83;;
50906;SDS011;36882;27.680;85.304;2022-11-25T05:22:50;70.72;;;49.33;;
50906;SDS011;36882;27.680;85.304;2022-11-25T05:25:19;76.75;;;54.75;;
50906;SDS011;36882;27.680;85.304;2022-11-25T05:27:51;81.80;;;53.75;;
50906;SDS011;36882;27.680;85.304;2022-11-25T05:30:21;75.60;;;50.60;;
50906;SDS011;36882;27.680;85.304;2022-11-25T05:32:51;79.70;;;51.38;;
50906;SDS011;36882;27.680;85.304;2022-11-25T05:35:22;67.85;;;45.85;;
50906;SDS011;36882;27.680;85.304;2022-11-25T05:37:51;65.43;;;43.58;;
50906;SDS011;36882;27.680;85.304;2022-11-25T05:40:21;69.43;;;45.90;;
50906;SDS011;36882;27.680;85.304;2022-11-25T05:42:51;68.68;;;43.42;;
50906;SDS011;36882;27.680;85.304;2022-11-25T05:45:21;62.75;;;40.65;;
50906;SDS011;36882;27.680;85.304;2022-11-25T05:47:51;81.68;;;46.13;;
50906;SDS011;36882;27.680;85.304;2022-11-25T05:50:22;77.72;;;43.03;;
50906;SDS011;36882;27.680;85.304;2022-11-25T05:52:52;77.43;;;46.85;;
50906;SDS011;36882;27.680;85.304;2022-11-25T05:55:22;67.97;;;43.15;;
50906;SDS011;36882;27.680;85.304;2022-11-25T05:57:51;77.65;;;44.25;;
50906;SDS011;36882;27.680;85.304;2022-11-25T06:00:21;70.10;;;45.45;;
50906;SDS011;36882;27.680;85.304;2022-11-25T06:02:52;67.97;;;47.35;;
50906;SDS011;36882;27.680;85.304;2022-11-25T06:07:52;74.17;;;49.00;;
50906;SDS011;36882;27.680;85.304;2022-11-25T06:10:22;67.68;;;44.95;;
50906;SDS011;36882;27.680;85.304;2022-11-25T06:12:53;80.13;;;44.42;;
50906;SDS011;36882;27.680;85.304;2022-11-25T06:15:23;63.92;;;45.47;;
50906;SDS011;36882;27.680;85.304;2022-11-25T06:17:54;81.15;;;45.13;;
50906;SDS011;36882;27.680;85.304;2022-11-25T06:20:24;68.30;;;45.97;;
50906;SDS011;36882;27.680;85.304;2022-11-25T06:22:54;87.13;;;47.60;;
50906;SDS011;36882;27.680;85.304;2022-11-25T06:25:26;77.50;;;45.85;;
50906;SDS011;36882;27.680;85.304;2022-11-25T06:30:39;75.97;;;43.92;;
50906;SDS011;36882;27.680;85.304;2022-11-25T06:33:09;63.03;;;40.55;;
50906;SDS011;36882;27.680;85.304;2022-11-25T06:35:40;59.75;;;36.65;;
50906;SDS011;36882;27.680;85.304;2022-11-25T06:38:10;62.25;;;37.85;;
50906;SDS011;36882;27.680;85.304;2022-11-25T06:40:40;60.35;;;37.60;;
50906;SDS011;36882;27.680;85.304;2022-11-25T06:43:10;85.25;;;45.90;;
50906;SDS011;36882;27.680;85.304;2022-11-25T06:45:40;70.40;;;42.38;;
50906;SDS011;36882;27.680;85.304;2022-11-25T06:48:10;66.00;;;37.33;;
50906;SDS011;36882;27.680;85.304;2022-11-25T06:50:40;64.25;;;34.78;;
50906;SDS011;36882;27.680;85.304;2022-11-25T06:55:39;35.47;;;22.35;;
50906;SDS011;36882;27.680;85.304;2022-11-25T06:58:09;30.92;;;19.70;;
50906;SDS011;36882;27.680;85.304;2022-11-25T07:01:00;54.10;;;27.23;;
50906;SDS011;36882;27.680;85.304;2022-11-25T07:03:32;46.97;;;25.17;;
50906;SDS011;36882;27.680;85.304;2022-11-25T07:06:03;41.40;;;26.65;;
50906;SDS011;36882;27.680;85.304;2022-11-25T07:08:33;46.03;;;28.02;;
50906;SDS011;36882;27.680;85.304;2022-11-25T07:11:05;45.22;;;25.55;;
50906;SDS011;36882;27.680;85.304;2022-11-25T07:13:40;48.03;;;27.25;;
50906;SDS011;36882;27.680;85.304;2022-11-25T07:16:11;50.60;;;29.75;;
50906;SDS011;36882;27.680;85.304;2022-11-25T07:18:42;52.10;;;27.85;;
50906;SDS011;36882;27.680;85.304;2022-11-25T07:21:14;40.10;;;26.70;;
50906;SDS011;36882;27.680;85.304;2022-11-25T07:23:46;46.45;;;26.48;;
50906;SDS011;36882;27.680;85.304;2022-11-25T07:26:20;59.72;;;26.65;;
50906;SDS011;36882;27.680;85.304;2022-11-25T07:28:53;37.67;;;25.30;;
50906;SDS011;36882;27.680;85.304;2022-11-25T07:31:26;40.78;;;25.40;;
50906;SDS011;36882;27.680;85.304;2022-11-25T07:34:02;50.30;;;30.05;;
50906;SDS011;36882;27.680;85.304;2022-11-25T07:36:34;50.28;;;30.88;;
50906;SDS011;36882;27.680;85.304;2022-11-25T07:39:05;52.75;;;28.50;;
50906;SDS011;36882;27.680;85.304;2022-11-25T07:41:38;54.25;;;27.95;;
50906;SDS011;36882;27.680;85.304;2022-11-25T07:44:12;37.17;;;24.25;;
50906;SDS011;36882;27.680;85.304;2022-11-25T07:46:44;42.75;;;24.42;;
50906;SDS011;36882;27.680;85.304;2022-11-25T07:49:18;50.70;;;24.38;;
50906;SDS011;36882;27.680;85.304;2022-11-25T07:51:53;39.50;;;23.20;;
50906;SDS011;36882;27.680;85.304;2022-11-25T07:54:25;42.30;;;24.55;;
50906;SDS011;36882;27.680;85.304;2022-11-25T07:56:56;37.78;;;23.58;;
50906;SDS011;36882;27.680;85.304;2022-11-25T08:01:56;36.33;;;21.50;;
50906;SDS011;36882;27.680;85.304;2022-11-25T08:04:26;34.50;;;21.65;;
50906;SDS011;36882;27.680;85.304;2022-11-25T08:06:56;43.60;;;22.05;;
50906;SDS011;36882;27.680;85.304;2022-11-25T08:09:25;38.88;;;18.25;;
50906;SDS011;36882;27.680;85.304;2022-11-25T08:11:55;34.60;;;20.67;;
50906;SDS011;36882;27.680;85.304;2022-11-25T08:14:28;40.42;;;20.10;;
50906;SDS011;36882;27.680;85.304;2022-11-25T08:16:59;33.45;;;19.95;;
50906;SDS011;36882;27.680;85.304;2022-11-25T08:19:30;30.48;;;16.88;;
50906;SDS011;36882;27.680;85.304;2022-11-25T08:22:01;46.33;;;21.58;;
50906;SDS011;36882;27.680;85.304;2022-11-25T08:24:32;49.40;;;22.45;;
50906;SDS011;36882;27.680;85.304;2022-11-25T08:27:02;52.55;;;25.30;;
50906;SDS011;36882;27.680;85.304;2022-11-25T08:32:02;65.07;;;31.98;;
50906;SDS011;36882;27.680;85.304;2022-11-25T08:34:37;54.53;;;29.00;;
50906;SDS011;36882;27.680;85.304;2022-11-25T08:37:07;46.10;;;22.30;;
50906;SDS011;36882;27.680;85.304;2022-11-25T08:42:18;53.40;;;26.63;;
50906;SDS011;36882;27.680;85.304;2022-11-25T08:44:51;40.63;;;23.00;;
50906;SDS011;36882;27.680;85.304;2022-11-25T08:47:22;58.72;;;22.27;;
50906;SDS011;36882;27.680;85.304;2022-11-25T08:49:53;39.20;;;18.75;;
50906;SDS011;36882;27.680;85.304;2022-11-25T08:52:23;31.17;;;17.15;;
50906;SDS011;36882;27.680;85.304;2022-11-25T08:54:58;32.58;;;20.75;;
50906;SDS011;36882;27.680;85.304;2022-11-25T08:57:28;41.13;;;18.45;;
50906;SDS011;36882;27.680;85.304;2022-11-25T09:02:27;29.10;;;18.33;;
50906;SDS011;36882;27.680;85.304;2022-11-25T09:04:57;35.97;;;16.70;;
50906;SDS011;36882;27.680;85.304;2022-11-25T09:07:29;27.10;;;15.48;;
50906;SDS011;36882;27.680;85.304;2022-11-25T09:09:59;31.98;;;17.58;;
50906;SDS011;36882;27.680;85.304;2022-11-25T09:12:30;39.60;;;17.73;;
50906;SDS011;36882;27.680;85.304;2022-11-25T09:15:00;31.48;;;17.83;;
50906;SDS011;36882;27.680;85.304;2022-11-25T09:17:31;32.95;;;17.08;;
50906;SDS011;36882;27.680;85.304;2022-11-25T09:20:04;31.15;;;19.02;;
50906;SDS011;36882;27.680;85.304;2022-11-25T09:22:37;28.13;;;18.02;;
50906;SDS011;36882;27.680;85.304;2022-11-25T09:25:07;30.80;;;18.17;;
50906;SDS011;36882;27.680;85.304;2022-11-25T09:27:37;29.70;;;16.77;;
50906;SDS011;36882;27.680;85.304;2022-11-25T09:30:07;35.45;;;19.33;;
50906;SDS011;36882;27.680;85.304;2022-11-25T09:32:39;34.85;;;18.60;;
50906;SDS011;36882;27.680;85.304;2022-11-25T09:37:38;41.20;;;18.13;;
50906;SDS011;36882;27.680;85.304;2022-11-25T09:40:20;30.88;;;16.00;;
50906;SDS011;36882;27.680;85.304;2022-11-25T09:47:16;38.60;;;21.58;;
50906;SDS011;36882;27.680;85.304;2022-11-25T09:52:45;35.08;;;19.05;;
50906;SDS011;36882;27.680;85.304;2022-11-25T09:55:32;34.13;;;16.05;;
50906;SDS011;36882;27.680;85.304;2022-11-25T10:01:14;38.83;;;14.98;;
50906;SDS011;36882;27.680;85.304;2022-11-25T10:03:49;31.00;;;17.27;;
50906;SDS011;36882;27.680;85.304;2022-11-25T10:06:30;41.78;;;15.15;;
50906;SDS011;36882;27.680;85.304;2022-11-25T10:09:09;32.60;;;15.63;;
50906;SDS011;36882;27.680;85.304;2022-11-25T10:14:38;30.38;;;14.68;;
50906;SDS011;36882;27.680;85.304;2022-11-25T10:20:25;30.35;;;14.40;;
50906;SDS011;36882;27.680;85.304;2022-11-25T10:23:01;26.23;;;14.35;;
50906;SDS011;36882;27.680;85.304;2022-11-25T10:25:38;26.17;;;14.50;;
50906;SDS011;36882;27.680;85.304;2022-11-25T10:28:18;30.52;;;17.00;;
50906;SDS011;36882;27.680;85.304;2022-11-25T10:33:47;31.77;;;15.40;;
50906;SDS011;36882;27.680;85.304;2022-11-25T10:36:25;32.33;;;13.40;;
50906;SDS011;36882;27.680;85.304;2022-11-25T10:39:04;33.50;;;14.20;;
50906;SDS011;36882;27.680;85.304;2022-11-25T10:41:56;31.73;;;14.15;;
50906;SDS011;36882;27.680;85.304;2022-11-25T10:44:34;26.05;;;15.48;;
50906;SDS011;36882;27.680;85.304;2022-11-25T10:53:16;41.58;;;18.38;;
50906;SDS011;36882;27.680;85.304;2022-11-25T10:56:03;42.60;;;21.75;;
50906;SDS011;36882;27.680;85.304;2022-11-25T10:58:39;36.83;;;22.25;;
50906;SDS011;36882;27.680;85.304;2022-11-25T11:01:24;47.50;;;18.75;;
50906;SDS011;36882;27.680;85.304;2022-11-25T11:06:46;31.50;;;18.55;;
50906;SDS011;36882;27.680;85.304;2022-11-25T11:09:32;51.30;;;21.35;;
50906;SDS011;36882;27.680;85.304;2022-11-25T11:17:58;39.33;;;18.45;;
50906;SDS011;36882;27.680;85.304;2022-11-25T11:20:45;32.97;;;17.73;;
50906;SDS011;36882;27.680;85.304;2022-11-25T11:23:18;66.90;;;23.50;;
50906;SDS011;36882;27.680;85.304;2022-11-25T11:25:58;307.33;;;227.90;;
50906;SDS011;36882;27.680;85.304;2022-11-25T11:28:39;292.95;;;212.80;;
50906;SDS011;36882;27.680;85.304;2022-11-25T11:31:16;168.63;;;111.82;;
50906;SDS011;36882;27.680;85.304;2022-11-25T11:37:24;72.47;;;39.80;;
50906;SDS011;36882;27.680;85.304;2022-11-25T11:46:24;47.67;;;25.17;;
50906;SDS011;36882;27.680;85.304;2022-11-25T11:49:18;62.83;;;34.60;;
50906;SDS011;36882;27.680;85.304;2022-11-25T12:10:26;121.65;;;68.18;;
50906;SDS011;36882;27.680;85.304;2022-11-25T12:16:14;56.38;;;28.10;;
50906;SDS011;36882;27.680;85.304;2022-11-25T12:19:07;47.30;;;23.63;;
50906;SDS011;36882;27.680;85.304;2022-11-25T12:21:54;59.03;;;28.02;;
50906;SDS011;36882;27.680;85.304;2022-11-25T12:27:35;54.70;;;27.77;;
50906;SDS011;36882;27.680;85.304;2022-11-25T12:30:12;54.05;;;28.63;;
50906;SDS011;36882;27.680;85.304;2022-11-25T12:33:03;48.88;;;24.90;;
50906;SDS011;36882;27.680;85.304;2022-11-25T12:36:05;41.47;;;23.02;;
50906;SDS011;36882;27.680;85.304;2022-11-25T12:41:40;39.08;;;22.33;;
50906;SDS011;36882;27.680;85.304;2022-11-25T12:44:23;50.30;;;25.60;;
50906;SDS011;36882;27.680;85.304;2022-11-25T12:47:16;46.85;;;25.13;;
50906;SDS011;36882;27.680;85.304;2022-11-25T12:49:59;52.05;;;27.45;;
50906;SDS011;36882;27.680;85.304;2022-11-25T12:52:46;64.07;;;27.98;;
50906;SDS011;36882;27.680;85.304;2022-11-25T12:55:25;58.53;;;28.02;;
50906;SDS011;36882;27.680;85.304;2022-11-25T13:01:07;49.53;;;28.45;;
50906;SDS011;36882;27.680;85.304;2022-11-25T13:10:19;62.78;;;33.60;;
50906;SDS011;36882;27.680;85.304;2022-11-25T13:13:00;63.05;;;34.30;;
50906;SDS011;36882;27.680;85.304;2022-11-25T13:15:53;71.20;;;35.88;;
50906;SDS011;36882;27.680;85.304;2022-11-25T13:18:29;65.00;;;36.45;;
50906;SDS011;36882;27.680;85.304;2022-11-25T13:21:05;81.32;;;37.45;;
50906;SDS011;36882;27.680;85.304;2022-11-25T13:23:55;82.68;;;40.03;;
50906;SDS011;36882;27.680;85.304;2022-11-25T13:26:34;100.50;;;49.67;;
50906;SDS011;36882;27.680;85.304;2022-11-25T13:32:32;96.57;;;49.50;;
50906;SDS011;36882;27.680;85.304;2022-11-25T13:38:06;103.63;;;48.60;;
50906;SDS011;36882;27.680;85.304;2022-11-25T13:41:00;94.30;;;49.35;;
50906;SDS011;36882;27.680;85.304;2022-11-25T13:46:51;100.93;;;51.28;;
50906;SDS011;36882;27.680;85.304;2022-11-25T13:49:37;96.05;;;49.13;;
50906;SDS011;36882;27.680;85.304;2022-11-25T13:52:33;94.20;;;54.22;;
50906;SDS011;36882;27.680;85.304;2022-11-25T13:55:21;99.97;;;54.42;;
50906;SDS011;36882;27.680;85.304;2022-11-25T14:01:01;110.30;;;53.42;;
50906;SDS011;36882;27.680;85.304;2022-11-25T14:03:42;124.35;;;59.22;;
50906;SDS011;36882;27.680;85.304;2022-11-25T14:06:20;98.22;;;55.13;;
50906;SDS011;36882;27.680;85.304;2022-11-25T14:09:04;115.43;;;56.58;;
50906;SDS011;36882;27.680;85.304;2022-11-25T14:18:01;118.28;;;62.42;;
50906;SDS011;36882;27.680;85.304;2022-11-25T14:27:14;108.30;;;55.80;;
50906;SDS011;36882;27.680;85.304;2022-11-25T14:29:53;106.68;;;58.38;;
50906;SDS011;36882;27.680;85.304;2022-11-25T14:35:31;129.27;;;61.05;;
50906;SDS011;36882;27.680;85.304;2022-11-25T14:38:13;118.75;;;55.08;;
50906;SDS011;36882;27.680;85.304;2022-11-25T14:40:52;108.28;;;52.10;;
50906;SDS011;36882;27.680;85.304;2022-11-25T14:43:38;86.15;;;50.00;;
50906;SDS011;36882;27.680;85.304;2022-11-25T14:46:16;83.27;;;51.80;;
50906;SDS011;36882;27.680;85.304;2022-11-25T14:48:53;110.93;;;56.35;;
50906;SDS011;36882;27.680;85.304;2022-11-25T14:51:34;96.72;;;54.47;;
50906;SDS011;36882;27.680;85.304;2022-11-25T14:54:07;96.93;;;53.63;;
50906;SDS011;36882;27.680;85.304;2022-11-25T14:56:39;93.30;;;49.83;;
50906;SDS011;36882;27.680;85.304;2022-11-25T14:59:09;97.25;;;52.17;;
50906;SDS011;36882;27.680;85.304;2022-11-25T15:01:54;99.25;;;52.97;;
50906;SDS011;36882;27.680;85.304;2022-11-25T15:04:29;98.72;;;53.67;;
50906;SDS011;36882;27.680;85.304;2022-11-25T15:07:13;96.40;;;56.47;;
50906;SDS011;36882;27.680;85.304;2022-11-25T15:09:57;128.32;;;60.88;;
50906;SDS011;36882;27.680;85.304;2022-11-25T15:12:31;100.22;;;58.30;;
50906;SDS011;36882;27.680;85.304;2022-11-25T15:15:12;106.07;;;59.15;;
50906;SDS011;36882;27.680;85.304;2022-11-25T15:17:44;99.68;;;56.92;;
50906;SDS011;36882;27.680;85.304;2022-11-25T15:20:18;116.03;;;59.53;;
50906;SDS011;36882;27.680;85.304;2022-11-25T15:25:20;102.40;;;58.90;;
50906;SDS011;36882;27.680;85.304;2022-11-25T15:27:51;111.78;;;57.60;;
50906;SDS011;36882;27.680;85.304;2022-11-25T15:30:23;105.10;;;57.80;;
50906;SDS011;36882;27.680;85.304;2022-11-25T15:32:57;105.72;;;57.55;;
50906;SDS011;36882;27.680;85.304;2022-11-25T15:35:27;105.53;;;55.80;;
50906;SDS011;36882;27.680;85.304;2022-11-25T15:37:58;102.07;;;57.15;;
50906;SDS011;36882;27.680;85.304;2022-11-25T15:40:53;104.35;;;54.35;;
50906;SDS011;36882;27.680;85.304;2022-11-25T15:43:25;103.68;;;55.35;;
50906;SDS011;36882;27.680;85.304;2022-11-25T15:46:00;87.18;;;53.85;;
50906;SDS011;36882;27.680;85.304;2022-11-25T15:48:37;101.50;;;52.67;;
50906;SDS011;36882;27.680;85.304;2022-11-25T15:51:30;96.75;;;49.42;;
50906;SDS011;36882;27.680;85.304;2022-11-25T15:54:14;104.82;;;53.55;;
50906;SDS011;36882;27.680;85.304;2022-11-25T16:02:53;100.03;;;55.28;;
50906;SDS011;36882;27.680;85.304;2022-11-25T16:05:31;107.45;;;55.03;;
50906;SDS011;36882;27.680;85.304;2022-11-25T16:08:21;86.13;;;50.00;;
50906;SDS011;36882;27.680;85.304;2022-11-25T16:11:12;112.03;;;52.83;;
50906;SDS011;36882;27.680;85.304;2022-11-25T16:13:51;91.07;;;55.42;;
50906;SDS011;36882;27.680;85.304;2022-11-25T16:16:30;107.68;;;59.00;;
50906;SDS011;36882;27.680;85.304;2022-11-25T16:19:05;98.45;;;54.92;;
50906;SDS011;36882;27.680;85.304;2022-11-25T16:21:45;98.25;;;49.47;;
50906;SDS011;36882;27.680;85.304;2022-11-25T16:24:31;85.70;;;46.20;;
50906;SDS011;36882;27.680;85.304;2022-11-25T16:27:25;83.68;;;44.13;;
50906;SDS011;36882;27.680;85.304;2022-11-25T16:30:07;74.97;;;42.30;;
50906;SDS011;36882;27.680;85.304;2022-11-25T16:32:50;68.00;;;40.85;;
50906;SDS011;36882;27.680;85.304;2022-11-25T16:35:20;75.95;;;43.55;;
50906;SDS011;36882;27.680;85.304;2022-11-25T16:37:53;90.03;;;41.55;;
50906;SDS011;36882;27.680;85.304;2022-11-25T16:40:26;75.38;;;43.83;;
50906;SDS011;36882;27.680;85.304;2022-11-25T16:42:58;84.40;;;45.08;;
50906;SDS011;36882;27.680;85.304;2022-11-25T16:45:29;90.32;;;50.08;;
50906;SDS011;36882;27.680;85.304;2022-11-25T16:48:00;114.25;;;75.00;;
50906;SDS011;36882;27.680;85.304;2022-11-25T16:50:40;83.85;;;52.30;;
50906;SDS011;36882;27.680;85.304;2022-11-25T16:53:11;91.50;;;56.40;;
50906;SDS011;36882;27.680;85.304;2022-11-25T16:55:43;98.43;;;55.20;;
50906;SDS011;36882;27.680;85.304;2022-11-25T16:58:17;96.65;;;50.92;;
50906;SDS011;36882;27.680;85.304;2022-11-25T17:00:52;76.85;;;43.60;;
50906;SDS011;36882;27.680;85.304;2022-11-25T17:03:25;81.10;;;40.72;;
50906;SDS011;36882;27.680;85.304;2022-11-25T17:08:27;65.35;;;36.63;;
50906;SDS011;36882;27.680;85.304;2022-11-25T17:13:28;60.35;;;37.90;;
50906;SDS011;36882;27.680;85.304;2022-11-25T17:15:59;61.28;;;35.55;;
50906;SDS011;36882;27.680;85.304;2022-11-25T17:18:30;62.13;;;31.35;;
50906;SDS011;36882;27.680;85.304;2022-11-25T17:21:01;52.08;;;31.85;;